Time;durP1;ratioP1;P1;durP2;ratioP2;P2;SDS_P1;SDS_P2;PMS_P1;PMS_P2;Temp;Humidity;BMP_temperature;BMP_pressure;BME280_temperature;BME280_humidity;BME280_pressure;Samples;Min_cycle;Max_cycle;Signal;HPM_P1;HPM_P2
2022/03/18 00:00:08;;;;;;;55.03;33.33;;;;;;;4.57;83.87;102653.31;5065554;28;20198;-73
2022/03/18 00:02:39;;;;;;;60.13;35.07;;;;;;;4.52;84.08;102648.03;5062340;28;20202;-73
2022/03/18 00:05:06;;;;;;;55.13;33.97;;;;;;;4.50;84.39;102648.78;5062464;28;20203;-74
2022/03/18 00:07:34;;;;;;;55.23;33.43;;;;;;;4.46;84.68;102646.94;5062774;28;20704;-74
2022/03/18 00:10:00;;;;;;;56.53;34.43;;;;;;;4.44;85.26;102657.22;5066518;28;20207;-73
2022/03/18 00:12:26;;;;;;;56.47;33.33;;;;;;;4.40;86.10;102654.50;5062855;28;20221;-73
2022/03/18 00:14:53;;;;;;;50.83;32.23;;;;;;;4.38;85.94;102659.63;5071637;28;20202;-73
2022/03/18 00:17:19;;;;;;;57.80;34.00;;;;;;;4.35;86.97;102662.13;5064590;28;20221;-73
2022/03/18 00:19:45;;;;;;;59.27;33.53;;;;;;;4.30;87.27;102661.94;5041476;28;20214;-74
2022/03/18 00:22:12;;;;;;;55.10;33.33;;;;;;;4.28;87.88;102662.75;5063914;28;20195;-74
2022/03/18 00:24:41;;;;;;;59.73;35.73;;;;;;;4.27;88.45;102663.56;5048022;28;20203;-73
2022/03/18 00:27:08;;;;;;;51.97;32.97;;;;;;;4.23;88.80;102669.47;5064524;28;20209;-74
2022/03/18 00:29:35;;;;;;;56.67;33.57;;;;;;;4.20;88.62;102666.78;5067065;28;20274;-74
2022/03/18 00:32:04;;;;;;;55.87;34.43;;;;;;;4.17;88.68;102662.41;5066186;28;20218;-73
2022/03/18 00:34:30;;;;;;;53.80;33.53;;;;;;;4.15;89.43;102666.59;5061949;28;20191;-73
2022/03/18 00:36:57;;;;;;;61.33;35.33;;;;;;;4.11;90.96;102669.94;5062868;28;20205;-73
2022/03/18 00:39:23;;;;;;;56.90;33.77;;;;;;;4.06;92.18;102667.19;5064021;28;20223;-73
2022/03/18 00:41:52;;;;;;;56.57;33.97;;;;;;;4.06;92.56;102667.19;5062602;28;20234;-73
2022/03/18 00:44:18;;;;;;;55.23;33.67;;;;;;;4.02;93.34;102664.47;5064294;28;20697;-74
2022/03/18 00:46:45;;;;;;;54.33;33.50;;;;;;;3.98;95.58;102669.50;5062844;28;20620;-74
2022/03/18 00:52:05;;;;;;;54.70;33.47;;;;;;;3.95;95.85;102668.53;5060789;28;20328;-74
2022/03/18 00:54:33;;;;;;;55.10;31.73;;;;;;;3.92;96.44;102673.59;5060871;28;20217;-74
2022/03/18 00:57:00;;;;;;;52.33;31.77;;;;;;;3.90;96.21;102668.38;5063512;28;20803;-73
2022/03/18 00:59:27;;;;;;;57.37;34.10;;;;;;;3.90;95.82;102670.09;5067483;28;20230;-74
2022/03/18 01:01:54;;;;;;;50.33;32.97;;;;;;;3.88;95.18;102672.59;5061815;28;20233;-74
2022/03/18 01:04:21;;;;;;;58.13;35.73;;;;;;;3.88;95.12;102677.78;5063018;28;20649;-73
2022/03/18 01:06:47;;;;;;;60.30;34.90;;;;;;;3.87;94.65;102681.19;5063253;28;20202;-74
2022/03/18 01:09:14;;;;;;;61.23;35.67;;;;;;;3.89;94.16;102679.53;5064511;28;20597;-73
2022/03/18 01:11:40;;;;;;;58.53;34.03;;;;;;;3.90;93.84;102685.56;5066026;28;20218;-73
2022/03/18 01:14:08;;;;;;;57.90;34.90;;;;;;;3.90;93.44;102685.56;5069918;28;20226;-74
2022/03/18 01:16:35;;;;;;;57.83;35.20;;;;;;;3.90;93.38;102694.19;5062285;28;20201;-73
2022/03/18 01:19:02;;;;;;;61.97;36.23;;;;;;;3.90;93.05;102689.00;5068199;28;20214;-74
2022/03/18 01:21:28;;;;;;;62.07;36.63;;;;;;;3.91;92.94;102690.78;5061625;28;20884;-74
2022/03/18 01:23:54;;;;;;;59.33;35.77;;;;;;;3.91;93.15;102698.53;5067423;28;20198;-73
2022/03/18 01:26:21;;;;;;;60.07;34.73;;;;;;;3.91;93.02;102706.28;5063139;28;20212;-74
2022/03/18 01:28:47;;;;;;;58.73;35.27;;;;;;;3.92;92.80;102704.56;5065021;28;20225;-73
2022/03/18 01:31:15;;;;;;;58.90;34.77;;;;;;;3.89;92.81;102692.44;5062782;28;20226;-73
2022/03/18 01:33:42;;;;;;;54.20;33.97;;;;;;;3.90;92.76;102701.91;5068603;28;20210;-73
2022/03/18 01:36:11;;;;;;;58.63;35.13;;;;;;;3.90;92.79;102701.06;5056529;28;20206;-73
2022/03/18 01:38:37;;;;;;;55.07;32.90;;;;;;;3.91;92.89;102703.69;5061502;28;20238;-74
2022/03/18 01:41:04;;;;;;;58.73;33.73;;;;;;;3.90;92.81;102709.66;5063158;28;20205;-73
2022/03/18 01:43:37;;;;;;;55.97;34.03;;;;;;;3.89;92.68;102701.91;5060189;28;20225;-73
2022/03/18 01:46:05;;;;;;;61.70;35.97;;;;;;;3.88;92.77;102713.03;5066706;28;20208;-74
2022/03/18 01:48:32;;;;;;;55.03;34.03;;;;;;;3.87;92.63;102704.41;5060463;28;20728;-73
2022/03/18 01:50:59;;;;;;;55.50;33.50;;;;;;;3.86;92.75;102719.84;5045492;28;20589;-73
2022/03/18 01:53:25;;;;;;;55.53;33.60;;;;;;;3.86;92.84;102719.84;5062744;28;20301;-74
2022/03/18 01:55:54;;;;;;;56.23;33.67;;;;;;;3.83;92.89;102719.72;5061801;28;20562;-73
2022/03/18 01:58:21;;;;;;;55.77;32.80;;;;;;;3.81;92.96;102723.97;5062818;28;20218;-74
2022/03/18 02:00:48;;;;;;;56.03;33.40;;;;;;;3.77;93.42;102726.44;5061962;28;20225;-73
2022/03/18 02:03:14;;;;;;;58.60;34.23;;;;;;;3.76;93.45;102722.13;5064839;28;20198;-73
2022/03/18 02:05:43;;;;;;;55.67;33.47;;;;;;;3.75;93.36;102724.63;5063579;28;20211;-73
2022/03/18 02:08:10;;;;;;;55.33;34.00;;;;;;;3.73;93.72;102734.00;5063644;28;20305;-73
2022/03/18 02:10:36;;;;;;;55.70;33.27;;;;;;;3.71;93.82;102740.81;5057891;28;20213;-74
2022/03/18 02:13:03;;;;;;;54.13;33.00;;;;;;;3.68;93.81;102744.16;5060589;28;20637;-74
2022/03/18 02:15:30;;;;;;;52.87;33.30;;;;;;;3.65;94.08;102746.63;5075993;28;20547;-73
2022/03/18 02:17:56;;;;;;;55.07;32.43;;;;;;;3.62;94.72;102746.50;5063098;28;20833;-73
2022/03/18 02:20:23;;;;;;;57.87;33.53;;;;;;;3.58;94.87;102747.22;5065376;28;20592;-74
2022/03/18 02:22:51;;;;;;;58.97;34.87;;;;;;;3.56;95.38;102747.19;5064307;28;20187;-73
2022/03/18 02:25:17;;;;;;;55.60;33.70;;;;;;;3.55;95.75;102753.19;5065449;28;20203;-74
2022/03/18 02:27:54;;;;;;;55.47;34.03;;;;;;;3.52;96.07;102758.22;5059662;28;20289;-74
2022/03/18 02:30:21;;;;;;;57.57;33.97;;;;;;;3.49;96.48;102758.09;5061677;28;20205;-73
2022/03/18 02:32:47;;;;;;;55.43;33.67;;;;;;;3.48;96.82;102761.47;5060923;28;20226;-74
2022/03/18 02:35:14;;;;;;;57.17;33.77;;;;;;;3.46;96.49;102763.13;5062926;28;20808;-74
2022/03/18 02:37:40;;;;;;;53.77;33.87;;;;;;;3.43;97.10;102763.03;5059528;28;20234;-74
2022/03/18 02:40:10;;;;;;;57.37;34.13;;;;;;;3.42;97.44;102762.13;5061024;28;20202;-74
2022/03/18 02:42:36;;;;;;;58.57;34.23;;;;;;;3.41;97.61;102765.56;5063517;28;20195;-74
2022/03/18 02:45:03;;;;;;;57.83;34.60;;;;;;;3.41;97.96;102769.81;5064675;28;20202;-74
2022/03/18 02:47:29;;;;;;;57.17;34.93;;;;;;;3.40;98.63;102768.06;5061066;28;20222;-74
2022/03/18 02:49:56;;;;;;;52.97;32.97;;;;;;;3.39;99.29;102774.03;5065108;28;20205;-74
2022/03/18 02:52:22;;;;;;;56.27;34.17;;;;;;;3.36;99.82;102779.06;5061811;28;20210;-74
2022/03/18 02:54:49;;;;;;;58.47;33.90;;;;;;;3.33;99.77;102782.44;5063783;28;20193;-74
2022/03/18 02:57:16;;;;;;;56.07;33.00;;;;;;;3.32;100.00;102777.22;5061531;28;20206;-73
2022/03/18 02:59:43;;;;;;;57.60;35.13;;;;;;;3.30;100.00;102776.28;5063166;28;20225;-74
2022/03/18 03:02:10;;;;;;;56.67;33.77;;;;;;;3.25;100.00;102783.81;5060657;28;20191;-73
2022/03/18 03:07:58;;;;;;;57.47;33.60;;;;;;;3.25;100.00;102782.94;5042492;28;20264;-73
2022/03/18 03:10:08;;;;;;;52.30;33.20;;;;;;;3.21;100.00;102795.72;5058386;28;20202;-73
2022/03/18 03:12:36;;;;;;;57.93;35.87;;;;;;;3.17;100.00;102791.28;5065875;28;20206;-73
2022/03/18 03:15:02;;;;;;;54.23;34.30;;;;;;;3.16;100.00;102792.06;5047740;28;20313;-73
2022/03/18 03:17:29;;;;;;;57.70;34.27;;;;;;;3.17;100.00;102803.28;5065934;28;20700;-73
2022/03/18 03:19:56;;;;;;;59.03;37.00;;;;;;;3.15;100.00;102798.06;5066742;28;20202;-73
2022/03/18 03:22:22;;;;;;;57.03;35.20;;;;;;;3.15;100.00;102802.31;5062101;28;20201;-73
2022/03/18 03:24:48;;;;;;;57.73;33.87;;;;;;;3.14;100.00;102801.44;5066915;28;20208;-73
2022/03/18 03:27:15;;;;;;;58.20;35.10;;;;;;;3.12;100.00;102810.84;5066841;28;20213;-73
2022/03/18 03:29:43;;;;;;;62.23;35.57;;;;;;;3.11;100.00;102810.75;5063730;28;20226;-73
2022/03/18 03:32:09;;;;;;;60.47;36.13;;;;;;;3.08;100.00;102814.13;5067302;28;20210;-73
2022/03/18 03:34:36;;;;;;;53.07;33.30;;;;;;;3.07;100.00;102825.22;5049718;28;20202;-73
2022/03/18 03:37:02;;;;;;;58.67;34.97;;;;;;;3.05;100.00;102829.44;5066041;28;20464;-73
2022/03/18 03:39:29;;;;;;;58.33;35.47;;;;;;;3.03;100.00;102837.13;5047826;28;20226;-73
2022/03/18 03:41:56;;;;;;;57.10;35.00;;;;;;;3.02;100.00;102842.22;5065964;28;20565;-73
2022/03/18 03:44:22;;;;;;;60.10;35.33;;;;;;;2.99;100.00;102840.41;5065217;28;20202;-73
2022/03/18 03:46:50;;;;;;;60.47;35.77;;;;;;;2.98;100.00;102846.34;5065436;28;20199;-73
2022/03/18 03:49:16;;;;;;;58.33;35.63;;;;;;;2.97;100.00;102854.94;5066996;28;20218;-74
2022/03/18 03:51:42;;;;;;;58.40;34.83;;;;;;;2.97;100.00;102859.19;5065097;28;20217;-73
2022/03/18 03:54:09;;;;;;;59.47;35.93;;;;;;;2.96;100.00;102867.75;5065683;28;20208;-73
2022/03/18 03:56:35;;;;;;;64.57;36.20;;;;;;;2.94;100.00;102869.38;5061798;28;20631;-73
2022/03/18 03:59:02;;;;;;;62.03;37.27;;;;;;;2.93;100.00;102881.38;5065616;28;20225;-73
2022/03/18 04:01:28;;;;;;;61.40;35.53;;;;;;;2.93;100.00;102872.78;5061746;28;20210;-73
2022/03/18 04:03:56;;;;;;;59.23;35.83;;;;;;;2.92;100.00;102883.88;5064768;28;20218;-73
2022/03/18 04:06:23;;;;;;;60.67;35.23;;;;;;;2.92;100.00;102886.47;5064065;28;20202;-73
2022/03/18 04:08:50;;;;;;;63.60;37.27;;;;;;;2.90;100.00;102885.53;5063312;28;20233;-73
2022/03/18 04:11:17;;;;;;;60.73;35.77;;;;;;;2.88;100.00;102893.19;5065268;28;20199;-74
2022/03/18 04:13:43;;;;;;;62.50;36.10;;;;;;;2.90;100.00;102896.69;5064930;28;20226;-73
2022/03/18 04:16:09;;;;;;;59.93;35.77;;;;;;;2.89;100.00;102899.25;5067556;28;20201;-73
2022/03/18 04:18:36;;;;;;;60.47;37.10;;;;;;;2.87;100.00;102901.75;5060941;28;20235;-73
2022/03/18 04:21:03;;;;;;;59.63;34.97;;;;;;;2.86;100.00;102899.09;5066289;28;20206;-73
2022/03/18 04:23:30;;;;;;;60.90;37.03;;;;;;;2.84;100.00;102907.63;5068840;28;20561;-73
2022/03/18 04:25:56;;;;;;;60.07;35.93;;;;;;;2.84;100.00;102909.34;5064173;28;20328;-74
2022/03/18 04:28:22;;;;;;;59.27;35.93;;;;;;;2.84;100.00;102911.91;5065632;28;20239;-73
2022/03/18 04:30:49;;;;;;;61.93;35.10;;;;;;;2.82;100.00;102921.28;5062087;28;20203;-73
2022/03/18 04:33:15;;;;;;;58.33;35.47;;;;;;;2.82;100.00;102926.44;5065786;28;20298;-73
2022/03/18 04:35:42;;;;;;;60.97;37.37;;;;;;;2.82;100.00;102932.47;5083082;28;20546;-73
2022/03/18 04:38:10;;;;;;;66.73;38.17;;;;;;;2.80;100.00;102928.06;5044413;28;20321;-73
2022/03/18 04:40:36;;;;;;;62.27;36.10;;;;;;;2.79;100.00;102923.72;5065037;28;20214;-73
2022/03/18 04:43:02;;;;;;;66.23;35.97;;;;;;;2.78;100.00;102929.69;5069424;28;20193;-73
2022/03/18 04:45:29;;;;;;;63.03;36.70;;;;;;;2.75;100.00;102927.00;5065540;28;20217;-73
2022/03/18 04:47:55;;;;;;;59.97;35.87;;;;;;;2.74;100.00;102936.41;5054842;28;20225;-73
2022/03/18 04:50:22;;;;;;;61.33;35.97;;;;;;;2.72;100.00;102935.44;5064490;28;21007;-73
2022/03/18 04:52:48;;;;;;;63.43;35.87;;;;;;;2.72;100.00;102940.59;5065120;28;20206;-73
2022/03/18 04:55:16;;;;;;;61.70;36.87;;;;;;;2.69;100.00;102939.59;5063138;28;20217;-73
2022/03/18 04:57:43;;;;;;;61.23;38.53;;;;;;;2.68;100.00;102938.72;5070061;28;20200;-74
2022/03/18 05:00:10;;;;;;;60.40;36.10;;;;;;;2.67;100.00;102934.38;5064003;28;20199;-73
2022/03/18 05:02:37;;;;;;;61.23;37.20;;;;;;;2.65;100.00;102943.72;5066845;28;20206;-73
2022/03/18 05:05:04;;;;;;;62.80;35.43;;;;;;;2.63;100.00;102946.25;5065827;28;20199;-74
2022/03/18 05:07:30;;;;;;;62.70;37.23;;;;;;;2.62;100.00;102943.59;5063437;28;20194;-74
2022/03/18 05:09:57;;;;;;;68.87;37.87;;;;;;;2.60;100.00;102951.28;5062686;28;20297;-74
2022/03/18 05:12:26;;;;;;;61.67;35.97;;;;;;;2.58;100.00;102954.59;5062423;28;20686;-73
2022/03/18 05:14:53;;;;;;;62.77;37.10;;;;;;;2.56;100.00;102951.06;5060669;28;20215;-73
2022/03/18 05:17:20;;;;;;;60.43;35.60;;;;;;;2.56;100.00;102956.22;5043144;28;20210;-76
2022/03/18 05:19:46;;;;;;;66.27;38.57;;;;;;;2.54;100.00;102973.31;5063675;28;20225;-74
2022/03/18 05:22:13;;;;;;;61.87;36.03;;;;;;;2.52;100.00;102969.78;5065318;28;20198;-73
2022/03/18 05:24:39;;;;;;;62.60;37.07;;;;;;;2.51;100.00;102979.19;5062476;28;20198;-73
2022/03/18 05:27:06;;;;;;;68.03;38.60;;;;;;;2.51;100.00;102971.44;5066084;28;20213;-73
2022/03/18 05:29:34;;;;;;;63.50;36.97;;;;;;;2.51;100.00;102975.72;5064501;28;20218;-73
2022/03/18 05:32:01;;;;;;;67.23;38.00;;;;;;;2.51;100.00;102980.88;5067729;28;20203;-73
2022/03/18 05:34:28;;;;;;;67.07;37.73;;;;;;;2.52;100.00;102986.09;5057970;28;20210;-73
2022/03/18 05:36:55;;;;;;;67.50;38.10;;;;;;;2.53;100.00;102990.44;5062046;28;20267;-73
2022/03/18 05:39:21;;;;;;;67.47;38.70;;;;;;;2.53;100.00;102987.84;5044462;28;20320;-73
2022/03/18 05:41:48;;;;;;;67.70;37.57;;;;;;;2.56;100.00;102993.16;5062602;28;20288;-73
2022/03/18 05:44:15;;;;;;;66.70;38.30;;;;;;;2.59;100.00;103003.59;5061353;28;20244;-74
2022/03/18 05:46:43;;;;;;;63.93;38.17;;;;;;;2.61;100.00;102993.38;5061200;28;20830;-73
2022/03/18 05:49:09;;;;;;;69.50;38.63;;;;;;;2.64;100.00;103002.09;5060986;28;20226;-73
2022/03/18 05:51:36;;;;;;;68.20;36.93;;;;;;;2.68;100.00;103002.25;5063500;28;20201;-76
2022/03/18 05:54:02;;;;;;;63.97;36.73;;;;;;;2.70;100.00;103009.22;5041449;28;20218;-77
2022/03/18 05:59:16;;;;;;;68.50;37.93;;;;;;;2.76;100.00;103011.19;5058641;28;20249;-73
2022/03/18 06:01:44;;;;;;;61.40;36.13;;;;;;;2.79;100.00;103025.06;5060210;28;20233;-73
2022/03/18 06:04:11;;;;;;;62.93;36.50;;;;;;;2.82;100.00;103026.94;5059817;28;20202;-73
2022/03/18 06:06:38;;;;;;;61.67;36.40;;;;;;;2.85;100.00;103032.22;5057888;28;20277;-73
2022/03/18 06:11:49;;;;;;;66.13;34.83;;;;;;;2.91;100.00;103035.06;5061577;28;20209;-73
2022/03/18 06:14:16;;;;;;;64.10;36.20;;;;;;;2.95;100.00;103033.50;5066532;28;20215;-73
2022/03/18 06:16:44;;;;;;;60.17;35.43;;;;;;;2.97;100.00;103040.50;5061640;28;20206;-73
2022/03/18 06:19:11;;;;;;;63.63;36.00;;;;;;;3.01;100.00;103049.25;5058773;28;20232;-73
2022/03/18 06:21:37;;;;;;;69.37;36.80;;;;;;;3.03;100.00;103056.22;5060785;28;20203;-73
2022/03/18 06:24:05;;;;;;;67.43;35.77;;;;;;;3.06;100.00;103068.38;5059129;28;20194;-74
2022/03/18 06:26:33;;;;;;;65.47;35.53;;;;;;;3.10;100.00;103074.53;5062169;28;20245;-74
2022/03/18 06:29:00;;;;;;;58.43;34.70;;;;;;;3.12;100.00;103066.03;5062542;28;20249;-73
2022/03/18 06:31:26;;;;;;;61.43;35.30;;;;;;;3.16;100.00;103075.66;5061356;28;20707;-73
2022/03/18 06:33:54;;;;;;;62.13;36.00;;;;;;;3.17;100.00;103077.44;5077450;28;20284;-74
2022/03/18 06:36:20;;;;;;;61.67;34.50;;;;;;;3.20;100.00;103075.00;5059074;28;20285;-73
2022/03/18 06:38:47;;;;;;;60.73;34.07;;;;;;;3.26;100.00;103091.56;5063370;28;20269;-73
2022/03/18 06:41:15;;;;;;;57.93;33.67;;;;;;;3.30;100.00;103093.44;5070872;28;20328;-73
2022/03/18 06:43:42;;;;;;;61.40;34.60;;;;;;;3.34;100.00;103095.31;5060545;28;20206;-73
2022/03/18 06:46:08;;;;;;;65.87;35.23;;;;;;;3.39;100.00;103101.56;5063226;28;20203;-73
2022/03/18 06:48:34;;;;;;;60.57;34.50;;;;;;;3.41;100.00;103105.09;5065657;28;20229;-73
2022/03/18 06:51:03;;;;;;;56.90;33.80;;;;;;;3.46;100.00;103102.72;5068682;28;20195;-73
2022/03/18 06:53:30;;;;;;;60.97;32.93;;;;;;;3.52;100.00;103103.88;5066146;28;20210;-73
2022/03/18 06:55:56;;;;;;;58.27;34.10;;;;;;;3.57;100.00;103110.09;5067750;28;20190;-73
2022/03/18 06:58:23;;;;;;;57.33;33.40;;;;;;;3.59;100.00;103112.75;5066233;28;20592;-74
2022/03/18 07:00:49;;;;;;;54.33;32.67;;;;;;;3.62;100.00;103122.31;5063518;28;20689;-74
2022/03/18 07:03:16;;;;;;;55.03;31.80;;;;;;;3.70;100.00;103129.56;5068168;28;20202;-74
2022/03/18 07:05:43;;;;;;;58.23;31.93;;;;;;;3.75;100.00;103132.34;5062073;28;20644;-74
2022/03/18 07:08:12;;;;;;;55.17;30.93;;;;;;;3.85;100.00;103137.06;5066890;28;20222;-74
2022/03/18 07:10:38;;;;;;;51.87;30.70;;;;;;;3.88;100.00;103144.94;5066604;28;20206;-74
2022/03/18 07:13:05;;;;;;;52.13;30.40;;;;;;;3.94;100.00;103147.78;5068343;28;20218;-74
2022/03/18 07:15:32;;;;;;;51.43;30.80;;;;;;;4.02;100.00;103154.97;5066141;28;20207;-74
2022/03/18 07:18:01;;;;;;;49.77;29.87;;;;;;;4.08;100.00;103157.78;5067031;28;20229;-74
2022/03/18 07:20:28;;;;;;;47.37;28.77;;;;;;;4.17;100.00;103168.50;5069419;28;20260;-75
2022/03/18 07:23:02;;;;;;;48.57;28.40;;;;;;;4.24;100.00;103160.19;5070699;28;20702;-74
2022/03/18 07:25:29;;;;;;;48.10;28.33;;;;;;;4.36;100.00;103177.84;5069827;28;20264;-76
2022/03/18 07:27:56;;;;;;;44.70;26.13;;;;;;;4.47;100.00;103174.03;5050635;28;20255;-73
2022/03/18 07:30:23;;;;;;;45.20;26.53;;;;;;;4.50;100.00;103170.66;5066094;28;20242;-74
2022/03/18 07:32:50;;;;;;;41.30;25.23;;;;;;;4.58;100.00;103177.03;5071721;28;20253;-76
2022/03/18 07:35:17;;;;;;;46.23;26.90;;;;;;;4.66;100.00;103185.06;5067503;28;20214;-74
2022/03/18 07:37:43;;;;;;;41.17;25.80;;;;;;;4.72;100.00;103191.38;5070695;28;20191;-74
2022/03/18 07:40:11;;;;;;;44.87;27.00;;;;;;;4.75;100.00;103182.88;5069258;28;20697;-74
2022/03/18 07:42:43;;;;;;;42.97;26.13;;;;;;;4.83;100.00;103189.19;5069727;28;20207;-74
2022/03/18 07:45:11;;;;;;;42.93;25.67;;;;;;;4.90;100.00;103204.13;5068226;28;20191;-74
2022/03/18 07:47:38;;;;;;;45.03;25.40;;;;;;;4.96;100.00;103197.41;5067455;28;20203;-75
2022/03/18 07:50:05;;;;;;;44.37;25.53;;;;;;;4.99;100.00;103210.47;5048683;28;20211;-75
2022/03/18 07:52:31;;;;;;;44.17;24.17;;;;;;;5.07;100.00;103209.06;5073018;28;20199;-77
2022/03/18 07:54:58;;;;;;;38.83;24.10;;;;;;;5.19;100.00;103213.78;5065339;28;20198;-76
2022/03/18 07:57:25;;;;;;;43.87;24.53;;;;;;;5.18;100.00;103212.06;5068446;28;21072;-74
2022/03/18 07:59:52;;;;;;;43.33;23.83;;;;;;;5.23;100.00;103219.16;5068089;28;20583;-74
2022/03/18 08:02:19;;;;;;;39.63;24.07;;;;;;;5.33;100.00;103212.63;5077232;28;20197;-73
2022/03/18 08:04:47;;;;;;;40.20;23.93;;;;;;;5.44;97.23;103220.78;5068056;28;20198;-73
2022/03/18 08:07:13;;;;;;;35.90;21.40;;;;;;;5.53;91.90;103239.22;5069620;28;20206;-77
2022/03/18 08:09:40;;;;;;;35.13;20.70;;;;;;;5.55;90.80;103240.16;5064619;28;20219;-74
2022/03/18 08:12:06;;;;;;;33.83;18.77;;;;;;;5.55;89.17;103244.47;5073291;28;20202;-75
2022/03/18 08:14:34;;;;;;;35.20;20.80;;;;;;;5.63;89.87;103246.50;5064425;28;20642;-74
2022/03/18 08:17:01;;;;;;;32.23;20.67;;;;;;;5.68;87.83;103257.00;5053096;28;20573;-75
2022/03/18 08:19:28;;;;;;;33.17;21.33;;;;;;;5.78;87.72;103256.50;5062364;28;20229;-76
2022/03/18 08:21:54;;;;;;;36.20;20.43;;;;;;;5.84;87.08;103264.50;5070040;28;20201;-76
2022/03/18 08:24:21;;;;;;;32.07;20.67;;;;;;;5.89;87.19;103264.66;5060983;28;20205;-74
2022/03/18 08:26:47;;;;;;;33.83;20.93;;;;;;;5.94;87.33;103275.19;5065366;28;20749;-73
2022/03/18 08:29:13;;;;;;;33.50;20.60;;;;;;;5.97;86.05;103285.69;5061531;28;20693;-76
2022/03/18 08:31:40;;;;;;;35.67;21.77;;;;;;;6.04;88.08;103285.97;5064800;28;20651;-76
2022/03/18 08:34:08;;;;;;;32.67;19.97;;;;;;;6.11;88.56;103286.19;5063315;28;20215;-73
2022/03/18 08:36:34;;;;;;;36.70;22.27;;;;;;;6.18;89.86;103294.22;5065181;28;20210;-75
2022/03/18 08:39:01;;;;;;;32.80;19.77;;;;;;;6.20;88.76;103289.97;5065685;28;20222;-76
2022/03/18 08:41:27;;;;;;;33.33;19.73;;;;;;;6.24;88.00;103291.84;5066623;28;20712;-74
2022/03/18 08:43:53;;;;;;;32.07;19.40;;;;;;;6.24;88.72;103288.34;5064962;28;20206;-76
2022/03/18 08:46:20;;;;;;;32.80;19.60;;;;;;;6.34;90.37;103293.03;5071302;28;20199;-74
2022/03/18 08:48:46;;;;;;;32.50;20.30;;;;;;;6.39;89.98;103299.25;5065703;28;20223;-73
2022/03/18 08:51:15;;;;;;;32.33;19.87;;;;;;;6.49;90.68;103299.56;5064999;28;20202;-75
2022/03/18 08:53:41;;;;;;;36.53;20.57;;;;;;;6.52;89.96;103299.66;5066680;28;20222;-74
2022/03/18 08:56:08;;;;;;;33.40;19.30;;;;;;;6.58;88.79;103308.53;5078682;28;20566;-76
2022/03/18 08:58:34;;;;;;;31.17;18.73;;;;;;;6.57;90.09;103305.88;5065504;28;20569;-74
2022/03/18 09:01:00;;;;;;;29.97;19.13;;;;;;;6.58;89.97;103305.06;5072774;28;20212;-74
2022/03/18 09:03:27;;;;;;;31.80;19.07;;;;;;;6.69;89.82;103295.91;5066521;28;20565;-74
2022/03/18 09:05:53;;;;;;;29.90;20.03;;;;;;;6.93;87.98;103306.22;5073290;28;20737;-74
2022/03/18 09:08:21;;;;;;;29.87;19.23;;;;;;;7.10;87.56;103298.06;5062834;28;20230;-74
2022/03/18 09:10:47;;;;;;;31.90;20.37;;;;;;;7.11;87.34;103308.50;5065042;28;20203;-74
2022/03/18 09:13:14;;;;;;;34.17;19.73;;;;;;;7.13;87.50;103301.63;5050568;28;20268;-78
2022/03/18 09:15:41;;;;;;;32.93;19.63;;;;;;;7.23;86.53;103308.00;5066546;28;20186;-75
2022/03/18 09:18:08;;;;;;;32.10;19.90;;;;;;;7.35;86.36;103317.84;5061506;28;20222;-75
2022/03/18 09:20:34;;;;;;;28.53;18.00;;;;;;;7.43;86.56;103312.91;5067223;28;20206;-74
2022/03/18 09:23:01;;;;;;;33.13;19.77;;;;;;;7.57;85.52;103312.47;5066341;28;20281;-75
2022/03/18 09:25:28;;;;;;;30.83;19.13;;;;;;;7.76;85.35;103319.06;5065496;28;20696;-74
2022/03/18 09:27:54;;;;;;;34.27;21.23;;;;;;;7.80;83.33;103320.03;5062684;28;21032;-76
2022/03/18 09:30:21;;;;;;;31.53;19.60;;;;;;;7.81;83.08;103318.31;5066018;28;20285;-76
2022/03/18 09:32:48;;;;;;;30.73;20.07;;;;;;;7.95;81.67;103323.06;5067366;28;20196;-74
2022/03/18 09:35:16;;;;;;;34.87;21.10;;;;;;;7.99;78.82;103325.75;5066996;28;20293;-73
2022/03/18 09:37:42;;;;;;;33.33;20.17;;;;;;;8.03;79.10;103327.59;5067409;28;20214;-74
2022/03/18 09:40:09;;;;;;;31.87;18.40;;;;;;;8.13;79.37;103327.88;5067961;28;20725;-76
2022/03/18 09:42:53;;;;;;;31.30;20.03;;;;;;;8.35;79.05;103331.06;5063016;28;20196;-76
2022/03/18 09:45:21;;;;;;;31.10;19.53;;;;;;;8.45;78.17;103340.03;5064641;28;20195;-76
2022/03/18 09:47:48;;;;;;;32.57;20.17;;;;;;;8.51;76.63;103348.88;5068223;28;20201;-74
2022/03/18 09:50:15;;;;;;;33.90;22.53;;;;;;;8.61;76.03;103354.28;5071889;28;20199;-76
2022/03/18 09:52:44;;;;;;;30.33;20.47;;;;;;;8.66;74.09;103353.56;5060730;28;20209;-74
2022/03/18 09:55:10;;;;;;;30.40;19.57;;;;;;;8.70;75.00;103355.38;5065934;28;20237;-77
2022/03/18 09:57:38;;;;;;;32.13;20.70;;;;;;;8.62;74.55;103367.34;5062368;28;20200;-74
2022/03/18 10:00:05;;;;;;;32.93;21.23;;;;;;;8.61;74.33;103362.09;5066793;28;20279;-75
2022/03/18 10:02:38;;;;;;;33.87;21.73;;;;;;;8.59;75.03;103355.97;5063319;28;20208;-74
2022/03/18 10:05:10;;;;;;;30.70;20.47;;;;;;;8.63;74.07;103366.47;5067997;28;20270;-76
2022/03/18 10:07:37;;;;;;;27.47;19.63;;;;;;;8.58;73.26;103372.41;5049854;28;20307;-75
2022/03/18 10:10:10;;;;;;;30.30;19.97;;;;;;;8.68;73.30;103357.06;5070274;28;20204;-74
2022/03/18 10:12:39;;;;;;;32.37;21.33;;;;;;;8.73;72.85;103369.34;5049440;28;20209;-74
2022/03/18 10:15:14;;;;;;;29.00;19.83;;;;;;;8.74;71.98;103371.09;5066784;28;20209;-76
2022/03/18 10:17:43;;;;;;;29.67;19.13;;;;;;;8.74;72.65;103376.28;5048245;28;20717;-75
2022/03/18 10:20:23;;;;;;;31.53;20.90;;;;;;;8.88;73.17;103370.59;5065099;28;20197;-76
2022/03/18 10:22:50;;;;;;;29.87;20.23;;;;;;;9.03;71.71;103377.88;5064665;28;20283;-74
2022/03/18 10:25:36;;;;;;;33.13;20.13;;;;;;;9.11;72.14;103372.84;5066431;28;20572;-75
2022/03/18 10:28:04;;;;;;;33.80;20.50;;;;;;;9.24;71.11;103384.47;5061404;28;20630;-75
2022/03/18 10:30:31;;;;;;;30.87;20.03;;;;;;;9.37;71.22;103380.41;5069472;28;20197;-77
2022/03/18 10:32:57;;;;;;;29.63;20.03;;;;;;;9.46;70.89;103386.72;5049222;28;20202;-75
2022/03/18 10:38:26;;;;;;;31.03;20.97;;;;;;;9.31;66.17;103396.78;5067159;28;20226;-74
2022/03/18 10:40:53;;;;;;;30.93;20.60;;;;;;;9.46;66.46;103386.72;5072027;28;20274;-74
2022/03/18 10:43:21;;;;;;;33.77;21.33;;;;;;;9.58;66.63;103393.03;5066017;28;20294;-75
2022/03/18 10:46:00;;;;;;;33.83;20.97;;;;;;;9.65;66.24;103390.59;5064742;28;20215;-74
2022/03/18 10:48:26;;;;;;;29.33;20.20;;;;;;;9.74;65.22;103397.72;5065878;28;20228;-75
2022/03/18 10:51:01;;;;;;;29.50;19.97;;;;;;;9.74;64.20;103402.94;5065793;28;20572;-74
2022/03/18 10:53:30;;;;;;;31.80;21.30;;;;;;;9.78;63.26;103396.97;5061849;28;20204;-73
2022/03/18 10:56:01;;;;;;;29.80;21.07;;;;;;;9.88;62.36;103402.34;5061893;28;20233;-74
2022/03/18 10:58:32;;;;;;;34.53;21.10;;;;;;;9.88;62.98;103402.34;5063426;28;20222;-74
2022/03/18 11:01:01;;;;;;;31.27;21.40;;;;;;;9.90;62.51;103393.72;5065818;28;20611;-73
2022/03/18 11:03:28;;;;;;;29.40;21.27;;;;;;;10.01;61.35;103397.44;5062570;28;20208;-73
2022/03/18 11:05:55;;;;;;;34.00;20.80;;;;;;;9.96;61.68;103399.06;5065468;28;20202;-77
2022/03/18 11:08:23;;;;;;;31.73;21.10;;;;;;;10.01;60.01;103405.25;5061723;28;20230;-73
2022/03/18 11:11:14;;;;;;;29.23;20.70;;;;;;;10.07;59.50;103407.09;5064354;28;20950;-74
2022/03/18 11:13:48;;;;;;;34.53;19.97;;;;;;;10.08;59.37;103408.88;5063964;28;20209;-76
2022/03/18 11:16:19;;;;;;;32.93;21.47;;;;;;;9.99;59.38;103406.94;5066491;28;20210;-76
2022/03/18 11:18:48;;;;;;;31.30;20.87;;;;;;;10.16;59.31;103407.28;5066070;28;20206;-75
2022/03/18 11:21:16;;;;;;;29.33;20.17;;;;;;;10.30;56.53;103422.31;5063604;28;20637;-77
2022/03/18 11:23:45;;;;;;;34.33;21.43;;;;;;;10.28;56.84;103409.25;5066448;28;20205;-74
2022/03/18 11:26:14;;;;;;;34.53;21.97;;;;;;;10.27;57.50;103410.09;5065103;28;20895;-75
2022/03/18 11:28:40;;;;;;;35.77;21.50;;;;;;;10.20;58.22;103416.03;5061802;28;20226;-76